AAY2847 KSFB-KGSP
Flight info
| Callsign | AAY2847 |
|---|---|
| Flight time | 1h 4m |
| Altitude | 35000 |
| Route | WORMS JEEMY ACCHE PAINN SHRKS Q77 WIGVO PROVN MCHLN2 |
| Aircraft | A319/M-SDE3FGHIRWY/LB1 |
Departure
| Time | 2026-04-19 12:41 |
|---|---|
| Airport | Orlando Sanford International Airport (KSFB) |
Arrival
| Time | 2026-04-19 13:45 |
|---|---|
| Airport | Greenville-Spartanburg International Airport (KGSP) |
| Time | Latitude | Longitude | Altitude | Speed | Heading |
|---|---|---|---|---|---|
| 2026-04-19 12:24 | 28.77645 | -81.24631 | 64 ft | 0 kts | 131° |
| 2026-04-19 12:31 | 28.77655 | -81.24645 | 55 ft | 3 kts | 131° |
| 2026-04-19 12:31 | 28.77668 | -81.24661 | 55 ft | 3 kts | 131° |
| 2026-04-19 12:31 | 28.77679 | -81.24679 | 57 ft | 3 kts | 97° |
| 2026-04-19 12:31 | 28.77676 | -81.24700 | 56 ft | 3 kts | 62° |
| 2026-04-19 12:32 | 28.77670 | -81.24713 | 57 ft | 0 kts | 62° |
| 2026-04-19 12:35 | 28.77675 | -81.24705 | 56 ft | 4 kts | 53° |
| 2026-04-19 12:35 | 28.77721 | -81.24667 | 61 ft | 11 kts | 34° |
| 2026-04-19 12:35 | 28.77763 | -81.24591 | 60 ft | 12 kts | 88° |
| 2026-04-19 12:35 | 28.77763 | -81.24485 | 64 ft | 16 kts | 90° |
| 2026-04-19 12:36 | 28.77763 | -81.24330 | 64 ft | 21 kts | 90° |
| 2026-04-19 12:36 | 28.77764 | -81.24162 | 64 ft | 21 kts | 90° |
| 2026-04-19 12:36 | 28.77764 | -81.23992 | 64 ft | 22 kts | 90° |
| 2026-04-19 12:36 | 28.77764 | -81.23819 | 64 ft | 22 kts | 90° |
| 2026-04-19 12:37 | 28.77764 | -81.23644 | 64 ft | 22 kts | 90° |
| 2026-04-19 12:37 | 28.77766 | -81.23507 | 63 ft | 13 kts | 81° |
| 2026-04-19 12:37 | 28.77839 | -81.23478 | 59 ft | 12 kts | 360° |
| 2026-04-19 12:37 | 28.77936 | -81.23478 | 58 ft | 15 kts | 360° |
| 2026-04-19 12:38 | 28.78012 | -81.23429 | 62 ft | 15 kts | 85° |
| 2026-04-19 12:38 | 28.78012 | -81.23307 | 64 ft | 17 kts | 90° |
| 2026-04-19 12:38 | 28.78012 | -81.23136 | 63 ft | 23 kts | 90° |
| 2026-04-19 12:38 | 28.78012 | -81.22950 | 60 ft | 24 kts | 90° |
| 2026-04-19 12:39 | 28.78013 | -81.22762 | 64 ft | 24 kts | 90° |
| 2026-04-19 12:39 | 28.78013 | -81.22573 | 62 ft | 24 kts | 90° |
| 2026-04-19 12:39 | 28.78013 | -81.22384 | 64 ft | 24 kts | 90° |
| 2026-04-19 12:39 | 28.78014 | -81.22212 | 64 ft | 14 kts | 84° |
| 2026-04-19 12:40 | 28.78082 | -81.22173 | 60 ft | 12 kts | 359° |
| 2026-04-19 12:40 | 28.78160 | -81.22174 | 65 ft | 10 kts | 352° |
| 2026-04-19 12:40 | 28.78178 | -81.22246 | 67 ft | 12 kts | 270° |
| 2026-04-19 12:40 | 28.78178 | -81.22520 | 64 ft | 71 kts | 270° |
| 2026-04-19 12:41 | 28.78176 | -81.23348 | 63 ft | 135 kts | 270° |
| 2026-04-19 12:41 | 28.78177 | -81.24589 | 278 ft | 166 kts | 271° |
| 2026-04-19 12:41 | 28.78195 | -81.25900 | 984 ft | 166 kts | 272° |
| 2026-04-19 12:41 | 28.78232 | -81.27278 | 1440 ft | 184 kts | 272° |
| 2026-04-19 12:42 | 28.78285 | -81.28825 | 1840 ft | 206 kts | 273° |
| 2026-04-19 12:42 | 28.78344 | -81.30489 | 2519 ft | 212 kts | 272° |
| 2026-04-19 12:42 | 28.78413 | -81.32172 | 3271 ft | 213 kts | 273° |
| 2026-04-19 12:42 | 28.78762 | -81.33846 | 3738 ft | 237 kts | 298° |
| 2026-04-19 12:43 | 28.80016 | -81.35200 | 4120 ft | 265 kts | 336° |
| 2026-04-19 12:43 | 28.81839 | -81.35684 | 5010 ft | 273 kts | 348° |
| 2026-04-19 12:43 | 28.83711 | -81.36115 | 5964 ft | 276 kts | 346° |
| 2026-04-19 12:43 | 28.85595 | -81.36602 | 6918 ft | 279 kts | 345° |
| 2026-04-19 12:44 | 28.87492 | -81.37109 | 7829 ft | 281 kts | 344° |
| 2026-04-19 12:44 | 28.89403 | -81.37621 | 8748 ft | 283 kts | 345° |
| 2026-04-19 12:44 | 28.91331 | -81.38134 | 9683 ft | 285 kts | 345° |
| 2026-04-19 12:44 | 28.93281 | -81.38649 | 10418 ft | 294 kts | 345° |
| 2026-04-19 12:45 | 28.95336 | -81.39186 | 10849 ft | 312 kts | 345° |
| 2026-04-19 12:45 | 28.97507 | -81.39749 | 11279 ft | 328 kts | 345° |
| 2026-04-19 12:45 | 28.99770 | -81.40333 | 11801 ft | 338 kts | 345° |
| 2026-04-19 12:45 | 29.02089 | -81.40930 | 12472 ft | 344 kts | 345° |
| 2026-04-19 12:46 | 29.04440 | -81.41534 | 13160 ft | 349 kts | 345° |
| 2026-04-19 12:46 | 29.06823 | -81.42145 | 13828 ft | 353 kts | 345° |
| 2026-04-19 12:46 | 29.09241 | -81.42759 | 14433 ft | 358 kts | 346° |
| 2026-04-19 12:46 | 29.11734 | -81.43095 | 15032 ft | 364 kts | 353° |
| 2026-04-19 12:47 | 29.14272 | -81.43330 | 15659 ft | 367 kts | 353° |
| 2026-04-19 12:47 | 29.16829 | -81.43569 | 16274 ft | 371 kts | 352° |
| 2026-04-19 12:47 | 29.19413 | -81.43813 | 16893 ft | 374 kts | 352° |
| 2026-04-19 12:47 | 29.22016 | -81.44059 | 17509 ft | 377 kts | 352° |
| 2026-04-19 12:48 | 29.24640 | -81.44308 | 18121 ft | 381 kts | 352° |
| 2026-04-19 12:48 | 29.27292 | -81.44561 | 18683 ft | 384 kts | 352° |
| 2026-04-19 12:48 | 29.29968 | -81.44820 | 19212 ft | 387 kts | 352° |
| 2026-04-19 12:48 | 29.32664 | -81.45078 | 19757 ft | 391 kts | 352° |
| 2026-04-19 12:49 | 29.35385 | -81.45338 | 20307 ft | 394 kts | 351° |
| 2026-04-19 12:49 | 29.38127 | -81.45603 | 20844 ft | 397 kts | 351° |
| 2026-04-19 12:49 | 29.40893 | -81.45872 | 21384 ft | 401 kts | 351° |
| 2026-04-19 12:49 | 29.43681 | -81.46139 | 21923 ft | 404 kts | 351° |
| 2026-04-19 12:50 | 29.46497 | -81.46404 | 22467 ft | 407 kts | 350° |
| 2026-04-19 12:50 | 29.49332 | -81.46671 | 22977 ft | 411 kts | 350° |
| 2026-04-19 12:50 | 29.52192 | -81.46944 | 23500 ft | 414 kts | 350° |
| 2026-04-19 12:50 | 29.55069 | -81.47222 | 23947 ft | 417 kts | 349° |
| 2026-04-19 12:51 | 29.57968 | -81.47501 | 24377 ft | 419 kts | 349° |
| 2026-04-19 12:51 | 29.60883 | -81.47773 | 24811 ft | 421 kts | 349° |
| 2026-04-19 12:51 | 29.63812 | -81.48038 | 25236 ft | 423 kts | 349° |
| 2026-04-19 12:51 | 29.66750 | -81.48301 | 25653 ft | 425 kts | 349° |
| 2026-04-19 12:52 | 29.69706 | -81.48565 | 26061 ft | 427 kts | 349° |
| 2026-04-19 12:52 | 29.72671 | -81.48834 | 26465 ft | 429 kts | 349° |
| 2026-04-19 12:52 | 29.75653 | -81.49106 | 26863 ft | 431 kts | 348° |
| 2026-04-19 12:52 | 29.78648 | -81.49374 | 27267 ft | 433 kts | 348° |
| 2026-04-19 12:53 | 29.81656 | -81.49643 | 27672 ft | 435 kts | 348° |
| 2026-04-19 12:53 | 29.84679 | -81.49915 | 28065 ft | 437 kts | 348° |
| 2026-04-19 12:53 | 29.87712 | -81.50207 | 28443 ft | 437 kts | 346° |
| 2026-04-19 12:53 | 29.90667 | -81.50885 | 28809 ft | 430 kts | 336° |
| 2026-04-19 12:54 | 29.93525 | -81.51896 | 29178 ft | 431 kts | 335° |
| 2026-04-19 12:54 | 29.96391 | -81.52923 | 29545 ft | 433 kts | 335° |
| 2026-04-19 12:54 | 29.99273 | -81.53958 | 29901 ft | 435 kts | 335° |
| 2026-04-19 12:54 | 30.02125 | -81.54984 | 30237 ft | 437 kts | 335° |
| 2026-04-19 12:55 | 30.05036 | -81.56030 | 30547 ft | 439 kts | 335° |
| 2026-04-19 12:55 | 30.07955 | -81.57078 | 30848 ft | 440 kts | 335° |
| 2026-04-19 12:55 | 30.10883 | -81.58128 | 31156 ft | 441 kts | 335° |
| 2026-04-19 12:55 | 30.13817 | -81.59180 | 31445 ft | 443 kts | 335° |
| 2026-04-19 12:56 | 30.16764 | -81.60236 | 31749 ft | 443 kts | 335° |
| 2026-04-19 12:56 | 30.19704 | -81.61288 | 32169 ft | 441 kts | 335° |
| 2026-04-19 12:56 | 30.22632 | -81.62336 | 32593 ft | 439 kts | 335° |
| 2026-04-19 12:56 | 30.25541 | -81.63379 | 33026 ft | 437 kts | 334° |
| 2026-04-19 12:57 | 30.28443 | -81.64419 | 33462 ft | 435 kts | 334° |
| 2026-04-19 12:57 | 30.31332 | -81.65455 | 33891 ft | 434 kts | 334° |
| 2026-04-19 12:57 | 30.34204 | -81.66484 | 34281 ft | 432 kts | 334° |
| 2026-04-19 12:57 | 30.37068 | -81.67515 | 34631 ft | 430 kts | 334° |
| 2026-04-19 12:58 | 30.39916 | -81.68543 | 34968 ft | 428 kts | 333° |
| 2026-04-19 12:58 | 30.42754 | -81.69567 | 35063 ft | 425 kts | 333° |
| 2026-04-19 12:58 | 30.48363 | -81.71585 | 35082 ft | 420 kts | 333° |
| 2026-04-19 12:59 | 30.53939 | -81.73613 | 35085 ft | 420 kts | 333° |
| 2026-04-19 12:59 | 30.59515 | -81.75640 | 35085 ft | 420 kts | 333° |
| 2026-04-19 13:00 | 30.65249 | -81.77242 | 35086 ft | 430 kts | 340° |
| 2026-04-19 13:00 | 30.71146 | -81.78405 | 35086 ft | 430 kts | 340° |
| 2026-04-19 13:01 | 30.77039 | -81.79576 | 35090 ft | 430 kts | 340° |
| 2026-04-19 13:01 | 30.82929 | -81.80757 | 35081 ft | 429 kts | 340° |
| 2026-04-19 13:02 | 30.88819 | -81.81946 | 35086 ft | 430 kts | 340° |
| 2026-04-19 13:02 | 30.94711 | -81.83127 | 35086 ft | 430 kts | 340° |
| 2026-04-19 13:03 | 31.00601 | -81.84312 | 35079 ft | 430 kts | 340° |
| 2026-04-19 13:03 | 31.06490 | -81.85500 | 35084 ft | 429 kts | 340° |
| 2026-04-19 13:04 | 31.12376 | -81.86689 | 35085 ft | 429 kts | 340° |
| 2026-04-19 13:04 | 31.18260 | -81.87876 | 35078 ft | 429 kts | 340° |
| 2026-04-19 13:05 | 31.24138 | -81.89068 | 35090 ft | 428 kts | 340° |
| 2026-04-19 13:05 | 31.30010 | -81.90256 | 35105 ft | 428 kts | 340° |
| 2026-04-19 13:06 | 31.35881 | -81.91444 | 35109 ft | 428 kts | 340° |
| 2026-04-19 13:06 | 31.41750 | -81.92633 | 35115 ft | 428 kts | 340° |
| 2026-04-19 13:07 | 31.47577 | -81.93812 | 35119 ft | 428 kts | 340° |
| 2026-04-19 13:07 | 31.53449 | -81.95005 | 35114 ft | 428 kts | 340° |
| 2026-04-19 13:08 | 31.59321 | -81.96194 | 35109 ft | 428 kts | 340° |
| 2026-04-19 13:08 | 31.65197 | -81.97393 | 35099 ft | 429 kts | 340° |
| 2026-04-19 13:09 | 31.71076 | -81.98600 | 35089 ft | 429 kts | 340° |
| 2026-04-19 13:09 | 31.76955 | -81.99805 | 35072 ft | 429 kts | 340° |
| 2026-04-19 13:10 | 31.82837 | -82.01017 | 35057 ft | 429 kts | 340° |
| 2026-04-19 13:10 | 31.88807 | -82.01894 | 35061 ft | 441 kts | 347° |
| 2026-04-19 13:11 | 31.94945 | -82.02099 | 35065 ft | 442 kts | 348° |
| 2026-04-19 13:11 | 32.01088 | -82.02290 | 35067 ft | 442 kts | 347° |
| 2026-04-19 13:12 | 32.07238 | -82.02501 | 35066 ft | 442 kts | 347° |
| 2026-04-19 13:12 | 32.13386 | -82.02719 | 35064 ft | 442 kts | 347° |
| 2026-04-19 13:13 | 32.19539 | -82.02936 | 35054 ft | 442 kts | 347° |
| 2026-04-19 13:13 | 32.25700 | -82.03138 | 35045 ft | 445 kts | 347° |
| 2026-04-19 13:14 | 32.28786 | -82.03243 | 34815 ft | 442 kts | 347° |
| 2026-04-19 13:14 | 32.31853 | -82.03348 | 34586 ft | 440 kts | 347° |
| 2026-04-19 13:14 | 32.34906 | -82.03454 | 34356 ft | 439 kts | 347° |
| 2026-04-19 13:14 | 32.37957 | -82.03560 | 34129 ft | 438 kts | 348° |
| 2026-04-19 13:15 | 32.41003 | -82.03668 | 33863 ft | 438 kts | 348° |
| 2026-04-19 13:15 | 32.44042 | -82.03776 | 33490 ft | 436 kts | 348° |
| 2026-04-19 13:15 | 32.47067 | -82.03849 | 33097 ft | 435 kts | 350° |
| 2026-04-19 13:15 | 32.50101 | -82.03792 | 32709 ft | 436 kts | 352° |
| 2026-04-19 13:16 | 32.53129 | -82.03634 | 32335 ft | 436 kts | 354° |
| 2026-04-19 13:16 | 32.56151 | -82.03425 | 31957 ft | 435 kts | 354° |
| 2026-04-19 13:16 | 32.59165 | -82.03210 | 31593 ft | 433 kts | 355° |
| 2026-04-19 13:16 | 32.62161 | -82.03015 | 31216 ft | 431 kts | 354° |
| 2026-04-19 13:17 | 32.65148 | -82.02842 | 30856 ft | 429 kts | 354° |
| 2026-04-19 13:17 | 32.68120 | -82.02690 | 30497 ft | 427 kts | 354° |
| 2026-04-19 13:17 | 32.71081 | -82.02550 | 30137 ft | 425 kts | 355° |
| 2026-04-19 13:17 | 32.74036 | -82.02410 | 29735 ft | 424 kts | 355° |
| 2026-04-19 13:18 | 32.76973 | -82.02266 | 29329 ft | 422 kts | 355° |
| 2026-04-19 13:18 | 32.79893 | -82.02119 | 28932 ft | 419 kts | 355° |
| 2026-04-19 13:18 | 32.82804 | -82.01971 | 28534 ft | 417 kts | 355° |
| 2026-04-19 13:18 | 32.85654 | -82.01823 | 28149 ft | 415 kts | 355° |
| 2026-04-19 13:19 | 32.87596 | -82.01724 | 27885 ft | 413 kts | 355° |
| 2026-04-19 13:19 | 32.91388 | -82.01536 | 27373 ft | 410 kts | 355° |
| 2026-04-19 13:19 | 32.94229 | -82.01396 | 27008 ft | 408 kts | 355° |
| 2026-04-19 13:19 | 32.97061 | -82.01258 | 26635 ft | 406 kts | 355° |
| 2026-04-19 13:20 | 32.98964 | -82.01165 | 26387 ft | 405 kts | 355° |
| 2026-04-19 13:20 | 33.01767 | -82.01024 | 26026 ft | 403 kts | 356° |
| 2026-04-19 13:20 | 33.04564 | -82.00879 | 25671 ft | 401 kts | 356° |
| 2026-04-19 13:20 | 33.07308 | -82.00738 | 25328 ft | 399 kts | 356° |
| 2026-04-19 13:21 | 33.10078 | -82.00596 | 24982 ft | 398 kts | 356° |
| 2026-04-19 13:21 | 33.12834 | -82.00457 | 24646 ft | 396 kts | 356° |
| 2026-04-19 13:21 | 33.15584 | -82.00318 | 24315 ft | 395 kts | 356° |
| 2026-04-19 13:21 | 33.18323 | -82.00179 | 23976 ft | 393 kts | 356° |
| 2026-04-19 13:22 | 33.21048 | -82.00041 | 23646 ft | 391 kts | 356° |
| 2026-04-19 13:22 | 33.23764 | -81.99902 | 23259 ft | 390 kts | 356° |
| 2026-04-19 13:22 | 33.26464 | -81.99766 | 22866 ft | 388 kts | 356° |
| 2026-04-19 13:22 | 33.29159 | -81.99630 | 22482 ft | 386 kts | 356° |
| 2026-04-19 13:23 | 33.31835 | -81.99490 | 22096 ft | 386 kts | 357° |
| 2026-04-19 13:23 | 33.34494 | -81.98880 | 21714 ft | 393 kts | 11° |
| 2026-04-19 13:23 | 33.37104 | -81.97883 | 21340 ft | 394 kts | 13° |
| 2026-04-19 13:23 | 33.39701 | -81.96865 | 20973 ft | 392 kts | 13° |
| 2026-04-19 13:24 | 33.42292 | -81.95843 | 20606 ft | 391 kts | 13° |
| 2026-04-19 13:24 | 33.44872 | -81.94824 | 20248 ft | 390 kts | 13° |
| 2026-04-19 13:24 | 33.47444 | -81.93807 | 19898 ft | 389 kts | 13° |
| 2026-04-19 13:24 | 33.50010 | -81.92795 | 19552 ft | 387 kts | 13° |
| 2026-04-19 13:25 | 33.52562 | -81.91788 | 19191 ft | 386 kts | 13° |
| 2026-04-19 13:25 | 33.55113 | -81.90785 | 18845 ft | 385 kts | 13° |
| 2026-04-19 13:25 | 33.57655 | -81.89787 | 18500 ft | 384 kts | 13° |
| 2026-04-19 13:25 | 33.60192 | -81.88792 | 18142 ft | 383 kts | 12° |
| 2026-04-19 13:26 | 33.62755 | -81.88178 | 17750 ft | 370 kts | 356° |
| 2026-04-19 13:26 | 33.65307 | -81.88121 | 17379 ft | 365 kts | 353° |
| 2026-04-19 13:26 | 33.67846 | -81.88115 | 17049 ft | 363 kts | 353° |
| 2026-04-19 13:26 | 33.70363 | -81.88111 | 16714 ft | 360 kts | 353° |
| 2026-04-19 13:27 | 33.72864 | -81.88103 | 16395 ft | 358 kts | 353° |
| 2026-04-19 13:27 | 33.75341 | -81.88091 | 16071 ft | 355 kts | 353° |
| 2026-04-19 13:27 | 33.77803 | -81.88076 | 15751 ft | 352 kts | 353° |
| 2026-04-19 13:27 | 33.80246 | -81.88057 | 15436 ft | 350 kts | 353° |
| 2026-04-19 13:28 | 33.82669 | -81.88035 | 15122 ft | 347 kts | 353° |
| 2026-04-19 13:28 | 33.85074 | -81.88007 | 14808 ft | 344 kts | 353° |
| 2026-04-19 13:28 | 33.87458 | -81.87986 | 14502 ft | 340 kts | 351° |
| 2026-04-19 13:28 | 33.89716 | -81.88467 | 14200 ft | 322 kts | 331° |
| 2026-04-19 13:29 | 33.91739 | -81.89531 | 13945 ft | 318 kts | 327° |
| 2026-04-19 13:29 | 33.93799 | -81.90673 | 13674 ft | 331 kts | 327° |
| 2026-04-19 13:29 | 33.95896 | -81.91835 | 13388 ft | 332 kts | 327° |
| 2026-04-19 13:29 | 33.97998 | -81.92994 | 13110 ft | 331 kts | 328° |
| 2026-04-19 13:30 | 34.00090 | -81.94144 | 12837 ft | 330 kts | 328° |
| 2026-04-19 13:30 | 34.02175 | -81.95290 | 12562 ft | 329 kts | 328° |
| 2026-04-19 13:30 | 34.06312 | -81.97579 | 12032 ft | 326 kts | 328° |
| 2026-04-19 13:31 | 34.08367 | -81.98718 | 11768 ft | 324 kts | 328° |
| 2026-04-19 13:31 | 34.10406 | -81.99848 | 11498 ft | 319 kts | 328° |
| 2026-04-19 13:31 | 34.12395 | -82.00945 | 11235 ft | 311 kts | 329° |
| 2026-04-19 13:31 | 34.14344 | -82.02023 | 10986 ft | 304 kts | 328° |
| 2026-04-19 13:32 | 34.16221 | -82.03064 | 10741 ft | 298 kts | 329° |
| 2026-04-19 13:32 | 34.18085 | -82.04097 | 10502 ft | 291 kts | 329° |
| 2026-04-19 13:32 | 34.19910 | -82.05112 | 10270 ft | 286 kts | 329° |
| 2026-04-19 13:32 | 34.21710 | -82.06115 | 10044 ft | 284 kts | 329° |
| 2026-04-19 13:33 | 34.23503 | -82.07115 | 9797 ft | 284 kts | 329° |
| 2026-04-19 13:33 | 34.25291 | -82.08114 | 9535 ft | 283 kts | 329° |
| 2026-04-19 13:33 | 34.27070 | -82.09107 | 9278 ft | 281 kts | 329° |
| 2026-04-19 13:33 | 34.28841 | -82.10096 | 8977 ft | 280 kts | 329° |
| 2026-04-19 13:34 | 34.30604 | -82.11079 | 8673 ft | 278 kts | 329° |
| 2026-04-19 13:34 | 34.32354 | -82.12055 | 8375 ft | 276 kts | 329° |
| 2026-04-19 13:34 | 34.34096 | -82.13025 | 8072 ft | 275 kts | 329° |
| 2026-04-19 13:34 | 34.35828 | -82.13991 | 7782 ft | 273 kts | 329° |
| 2026-04-19 13:35 | 34.37546 | -82.14950 | 7483 ft | 271 kts | 329° |
| 2026-04-19 13:35 | 34.39251 | -82.15902 | 7197 ft | 269 kts | 329° |
| 2026-04-19 13:35 | 34.40948 | -82.16853 | 6910 ft | 268 kts | 329° |
| 2026-04-19 13:35 | 34.42635 | -82.17801 | 6623 ft | 267 kts | 329° |
| 2026-04-19 13:36 | 34.44313 | -82.18741 | 6330 ft | 265 kts | 329° |
| 2026-04-19 13:36 | 34.45981 | -82.19674 | 6019 ft | 263 kts | 330° |
| 2026-04-19 13:36 | 34.47637 | -82.20603 | 5757 ft | 262 kts | 330° |
| 2026-04-19 13:36 | 34.49283 | -82.21523 | 5511 ft | 259 kts | 331° |
| 2026-04-19 13:37 | 34.50920 | -82.22434 | 5261 ft | 258 kts | 332° |
| 2026-04-19 13:37 | 34.52544 | -82.23342 | 5017 ft | 256 kts | 332° |
| 2026-04-19 13:37 | 34.54156 | -82.24242 | 4762 ft | 253 kts | 333° |
| 2026-04-19 13:37 | 34.55749 | -82.25134 | 4512 ft | 251 kts | 333° |
| 2026-04-19 13:38 | 34.57328 | -82.26022 | 4303 ft | 249 kts | 333° |
| 2026-04-19 13:38 | 34.58893 | -82.26905 | 4107 ft | 248 kts | 333° |
| 2026-04-19 13:38 | 34.60455 | -82.27787 | 3903 ft | 247 kts | 334° |
| 2026-04-19 13:38 | 34.62000 | -82.28656 | 3704 ft | 240 kts | 334° |
| 2026-04-19 13:39 | 34.63477 | -82.29485 | 3554 ft | 227 kts | 335° |
| 2026-04-19 13:39 | 34.64867 | -82.30267 | 3494 ft | 213 kts | 335° |
| 2026-04-19 13:39 | 34.66203 | -82.31018 | 3500 ft | 212 kts | 335° |
| 2026-04-19 13:39 | 34.67541 | -82.31772 | 3505 ft | 212 kts | 335° |
| 2026-04-19 13:40 | 34.68873 | -82.32522 | 3499 ft | 210 kts | 335° |
| 2026-04-19 13:40 | 34.70193 | -82.33267 | 3503 ft | 209 kts | 335° |
| 2026-04-19 13:40 | 34.71521 | -82.33929 | 3494 ft | 201 kts | 345° |
| 2026-04-19 13:40 | 34.72846 | -82.34053 | 3497 ft | 189 kts | 3° |
| 2026-04-19 13:41 | 34.74110 | -82.33633 | 3502 ft | 186 kts | 20° |
| 2026-04-19 13:41 | 34.75226 | -82.32824 | 3502 ft | 187 kts | 26° |
| 2026-04-19 13:41 | 34.76292 | -82.32012 | 3530 ft | 173 kts | 26° |
| 2026-04-19 13:41 | 34.77294 | -82.31249 | 3444 ft | 167 kts | 25° |
| 2026-04-19 13:42 | 34.78248 | -82.30524 | 3288 ft | 162 kts | 25° |
| 2026-04-19 13:42 | 34.79198 | -82.29801 | 3078 ft | 159 kts | 25° |
| 2026-04-19 13:42 | 34.80126 | -82.29093 | 2872 ft | 156 kts | 25° |
| 2026-04-19 13:42 | 34.81033 | -82.28402 | 2667 ft | 150 kts | 25° |
| 2026-04-19 13:43 | 34.81895 | -82.27743 | 2477 ft | 143 kts | 25° |
| 2026-04-19 13:43 | 34.82715 | -82.27117 | 2277 ft | 136 kts | 25° |
| 2026-04-19 13:43 | 34.83485 | -82.26529 | 2102 ft | 126 kts | 25° |
| 2026-04-19 13:43 | 34.84227 | -82.25965 | 1942 ft | 126 kts | 25° |
| 2026-04-19 13:44 | 34.84962 | -82.25405 | 1759 ft | 123 kts | 26° |
| 2026-04-19 13:44 | 34.85687 | -82.24854 | 1606 ft | 123 kts | 25° |
| 2026-04-19 13:44 | 34.86415 | -82.24297 | 1429 ft | 124 kts | 28° |
| 2026-04-19 13:44 | 34.87140 | -82.23743 | 1272 ft | 122 kts | 29° |
| 2026-04-19 13:45 | 34.87859 | -82.23195 | 1118 ft | 122 kts | 27° |
| 2026-04-19 13:45 | 34.88576 | -82.22644 | 975 ft | 119 kts | 28° |
| 2026-04-19 13:45 | 34.89166 | -82.22193 | 958 ft | 77 kts | 32° |
| 2026-04-19 13:45 | 34.89420 | -82.21983 | 961 ft | 24 kts | 49° |
| 2026-04-19 13:46 | 34.89495 | -82.21838 | 962 ft | 18 kts | 62° |
| 2026-04-19 13:46 | 34.89540 | -82.21725 | 958 ft | 10 kts | 78° |
| 2026-04-19 13:46 | 34.89491 | -82.21707 | 961 ft | 10 kts | 212° |
| 2026-04-19 13:46 | 34.89447 | -82.21741 | 961 ft | 7 kts | 212° |
| 2026-04-19 13:47 | 34.89402 | -82.21732 | 958 ft | 7 kts | 134° |
| 2026-04-19 13:47 | 34.89361 | -82.21709 | 960 ft | 7 kts | 193° |
| 2026-04-19 13:47 | 34.89315 | -82.21742 | 961 ft | 8 kts | 212° |
| 2026-04-19 13:47 | 34.89264 | -82.21780 | 957 ft | 8 kts | 212° |
| 2026-04-19 13:48 | 34.89226 | -82.21774 | 960 ft | 6 kts | 130° |
| 2026-04-19 13:48 | 34.89212 | -82.21744 | 957 ft | 2 kts | 120° |
| 2026-04-19 13:48 | 34.89205 | -82.21729 | 957 ft | 1 kts | 121° |
| 2026-04-19 13:48 | 34.89203 | -82.21726 | 958 ft | 1 kts | 121° |
| 2026-04-19 13:49 | 34.89202 | -82.21725 | 958 ft | 0 kts | 121° |